createdAt,value
2022-12-19T00:05:10.866Z,101858.00
2022-12-19T00:07:39.944Z,101857.88
2022-12-19T00:10:22.292Z,101854.41
2022-12-19T00:26:45.765Z,101846.97
2022-12-19T00:26:48.900Z,101864.56
2022-12-19T00:30:04.589Z,101855.19
2022-12-19T00:32:57.423Z,101853.50
2022-12-19T00:36:23.196Z,101850.16
2022-12-19T01:13:48.417Z,101809.56
2022-12-19T01:17:04.259Z,101809.78
2022-12-19T01:20:06.043Z,101784.28
2022-12-19T01:23:15.068Z,101784.34
2022-12-19T01:26:07.997Z,101772.88
2022-12-19T01:28:55.735Z,101775.53
2022-12-19T01:32:01.765Z,101778.22
2022-12-19T01:34:44.844Z,101766.75
2022-12-19T01:37:33.922Z,101768.59
2022-12-19T01:40:30.233Z,101767.84
2022-12-19T01:43:28.194Z,101777.75
2022-12-19T01:50:38.991Z,101727.91
2022-12-19T01:53:09.573Z,101709.31
2022-12-19T01:56:11.300Z,101711.13
2022-12-19T01:59:15.020Z,101710.25
2022-12-19T02:02:57.719Z,101689.94
2022-12-19T02:06:01.024Z,101678.66
2022-12-19T02:09:07.600Z,101676.19
2022-12-19T02:11:55.798Z,101667.59
2022-12-19T02:14:43.936Z,101666.91
2022-12-19T02:17:56.703Z,101677.59
2022-12-19T02:21:06.927Z,101661.00
2022-12-19T02:28:54.853Z,101644.47
2022-12-19T02:31:35.603Z,101646.44
2022-12-19T02:35:05.710Z,101637.56
2022-12-19T02:38:03.211Z,101639.41
2022-12-19T02:41:02.998Z,101628.88
2022-12-19T02:43:58.791Z,101630.09
2022-12-19T02:47:09.801Z,101629.47
2022-12-19T02:49:44.643Z,101626.94
2022-12-19T02:53:23.863Z,101643.00
2022-12-19T02:56:30.141Z,101638.72
2022-12-19T03:03:05.695Z,101637.28
2022-12-19T03:07:16.256Z,101642.75
2022-12-19T03:09:55.938Z,101640.13
2022-12-19T03:13:28.463Z,101629.72
2022-12-19T03:18:04.865Z,101627.06
2022-12-19T03:21:42.496Z,101615.63
2022-12-19T03:23:08.067Z,101613.03
2022-12-19T03:33:12.027Z,101607.59
2022-12-19T03:38:58.995Z,101600.63
2022-12-19T03:42:04.436Z,101609.41
2022-12-19T03:48:15.251Z,101601.53
2022-12-19T03:51:03.341Z,101602.50
2022-12-19T03:53:44.625Z,101597.22
2022-12-19T03:56:23.157Z,101590.34
2022-12-19T03:59:00.276Z,101599.06
2022-12-19T04:01:35.972Z,101589.41
2022-12-19T04:04:30.447Z,101586.06
2022-12-19T04:07:13.425Z,101586.09
2022-12-19T04:09:51.865Z,101584.38
2022-12-19T04:16:41.828Z,101575.69
2022-12-19T04:19:19.631Z,101582.75
2022-12-19T04:22:04.966Z,101579.22
2022-12-19T04:25:10.442Z,101573.91
2022-12-19T04:27:42.971Z,101576.50
2022-12-19T04:30:20.467Z,101577.38
2022-12-19T04:32:56.679Z,101588.94
2022-12-19T04:35:39.285Z,101567.81
2022-12-19T04:38:15.581Z,101587.25
2022-12-19T04:40:50.141Z,101568.66
2022-12-19T04:43:40.668Z,101580.09
2022-12-19T04:46:09.183Z,101570.47
2022-12-19T04:48:44.195Z,101549.34
2022-12-19T04:51:22.385Z,101562.63
2022-12-19T04:53:58.650Z,101568.81
2022-12-19T04:57:15.503Z,101565.31
2022-12-19T04:59:19.987Z,101561.72
2022-12-19T05:01:57.518Z,101556.47
2022-12-19T05:04:28.578Z,101543.25
2022-12-19T05:07:04.164Z,101553.84
2022-12-19T05:09:36.563Z,101548.63
2022-12-19T05:12:33.587Z,101534.53
2022-12-19T05:15:06.826Z,101538.91
2022-12-19T05:29:37.633Z,101521.63
2022-12-19T05:32:29.270Z,101529.66
2022-12-19T05:35:27.198Z,101531.47
2022-12-19T05:38:19.412Z,101521.84
2022-12-19T05:44:13.681Z,101523.81
2022-12-19T05:47:32.006Z,101533.47
2022-12-19T05:50:45.283Z,101530.16
2022-12-19T05:53:29.865Z,101531.94
2022-12-19T06:00:37.416Z,101534.72
2022-12-19T06:03:40.889Z,101537.59
2022-12-19T06:07:33.452Z,101538.50
2022-12-19T06:14:06.315Z,101531.56
2022-12-19T06:17:20.983Z,101540.47
2022-12-19T06:27:44.237Z,101530.03
2022-12-19T06:33:49.008Z,101524.06
2022-12-19T06:36:41.682Z,101514.56
2022-12-19T06:40:11.830Z,101527.00
2022-12-19T06:43:38.866Z,101514.66
2022-12-19T06:46:46.938Z,101516.63
2022-12-19T06:49:45.801Z,101508.94
2022-12-19T06:52:22.998Z,101504.50
2022-12-19T06:59:26.190Z,101506.34
2022-12-19T07:02:08.281Z,101519.59
2022-12-19T07:05:16.583Z,101504.69
2022-12-19T07:08:14.506Z,101514.47
2022-12-19T07:10:59.849Z,101514.63
2022-12-19T07:13:56.987Z,101512.00
2022-12-19T07:18:15.182Z,101518.22
2022-12-19T07:29:10.777Z,101529.19
2022-12-19T08:26:35.812Z,101552.28
2022-12-19T09:05:53.216Z,101552.41
2022-12-19T09:07:34.615Z,101561.31
2022-12-19T09:10:07.915Z,101565.81
2022-12-19T09:12:36.604Z,101564.09
2022-12-19T09:15:05.113Z,101563.28
2022-12-19T09:17:33.527Z,101573.09
2022-12-19T09:20:07.285Z,101566.97
2022-12-19T09:22:35.167Z,101567.91
2022-12-19T09:25:03.103Z,101561.72
2022-12-19T09:28:01.300Z,101567.09
2022-12-19T09:30:24.670Z,101560.94
2022-12-19T09:32:53.564Z,101571.63
2022-12-19T09:35:28.458Z,101570.78
2022-12-19T09:38:00.341Z,101566.38
2022-12-19T09:40:32.952Z,101556.66
2022-12-19T09:43:11.964Z,101559.41
2022-12-19T10:25:34.951Z,101558.53
2022-12-19T10:29:32.807Z,101565.69
2022-12-19T10:37:11.925Z,101549.91
2022-12-19T10:39:52.609Z,101557.13
2022-12-19T10:49:35.320Z,101544.00
2022-12-19T10:56:20.032Z,101541.53
2022-12-19T11:06:25.974Z,101528.44
2022-12-19T11:17:52.074Z,101520.41
2022-12-19T11:29:12.277Z,101516.97
2022-12-19T11:29:54.354Z,101509.84
2022-12-19T11:32:41.534Z,101535.66
2022-12-19T12:03:20.244Z,101527.88
2022-12-19T12:48:48.297Z,101469.94
2022-12-19T13:06:53.809Z,101455.09
2022-12-19T15:57:58.829Z,101324.66
2022-12-19T17:37:12.531Z,101407.41
2022-12-19T17:39:57.272Z,101413.63
2022-12-19T17:45:40.517Z,101416.31
2022-12-19T17:48:32.133Z,101422.56
2022-12-19T17:51:00.933Z,101417.25
2022-12-19T17:53:31.234Z,101419.03
2022-12-19T17:56:00.208Z,101408.41
2022-12-19T18:01:25.740Z,101427.06
2022-12-19T18:03:56.180Z,101419.97
2022-12-19T18:06:24.049Z,101427.97
2022-12-19T18:08:53.241Z,101419.09
2022-12-19T18:11:23.380Z,101414.69
2022-12-19T18:13:52.085Z,101416.47
2022-12-19T18:16:23.684Z,101408.47
2022-12-19T18:18:51.559Z,101411.13
2022-12-19T18:21:24.172Z,101413.81
2022-12-19T18:23:53.361Z,101395.13
2022-12-19T18:26:21.142Z,101397.81
2022-12-19T18:28:49.073Z,101402.28
2022-12-19T18:31:19.307Z,101406.72
2022-12-19T18:33:50.819Z,101408.47
2022-12-19T18:36:21.898Z,101404.94
2022-12-19T18:38:50.286Z,101404.06
2022-12-19T18:41:20.765Z,101396.94
2022-12-19T18:43:49.257Z,101402.31
2022-12-19T18:46:27.932Z,101406.75
2022-12-19T18:48:55.820Z,101409.44
2022-12-19T18:51:23.683Z,101402.38
2022-12-19T18:53:51.734Z,101397.03
2022-12-19T18:56:21.008Z,101389.03
2022-12-19T18:58:49.369Z,101394.38
2022-12-19T19:01:20.182Z,101388.19
2022-12-19T19:03:52.974Z,101389.06
2022-12-19T19:06:23.068Z,101394.41
2022-12-19T19:08:52.052Z,101399.75
2022-12-19T19:11:23.450Z,101400.66
2022-12-19T19:13:51.559Z,101409.53
2022-12-19T19:16:20.954Z,101404.22
2022-12-19T19:18:53.053Z,101390.88
2022-12-19T19:21:22.238Z,101386.47
2022-12-19T19:23:55.211Z,101383.78
2022-12-19T19:26:24.383Z,101391.78
2022-12-19T19:28:52.861Z,101401.56
2022-12-19T19:31:26.384Z,101396.22
2022-12-19T19:33:59.324Z,101406.03
2022-12-19T19:36:30.643Z,101405.16
2022-12-19T19:38:59.181Z,101411.38
2022-12-19T19:41:29.841Z,101406.94
2022-12-19T19:43:58.673Z,101418.50
2022-12-19T19:46:26.927Z,101408.72
2022-12-19T19:48:56.618Z,101406.97
2022-12-19T19:51:28.797Z,101408.72
2022-12-19T19:53:56.707Z,101415.00
2022-12-19T19:56:24.386Z,101412.31
2022-12-19T19:58:55.259Z,101405.25
2022-12-19T20:01:23.079Z,101399.91
2022-12-19T20:03:51.010Z,101402.59
2022-12-19T20:06:19.218Z,101404.41
2022-12-19T20:08:47.387Z,101408.84
2022-12-19T20:11:15.252Z,101412.41
2022-12-19T20:13:42.985Z,101410.63
2022-12-19T20:16:13.695Z,101407.94
2022-12-19T20:18:42.070Z,101402.63
2022-12-19T20:21:13.126Z,101404.41
2022-12-19T20:23:42.948Z,101401.75
2022-12-19T20:26:11.752Z,101405.34
2022-12-19T20:28:47.411Z,101392.00
2022-12-19T20:31:18.367Z,101408.91
2022-12-19T20:33:46.736Z,101411.56
2022-12-19T20:36:15.364Z,101402.69
2022-12-19T20:38:43.738Z,101400.03
2022-12-19T20:41:11.553Z,101404.50
2022-12-19T20:43:39.508Z,101403.63
2022-12-19T20:46:09.769Z,101405.41
2022-12-19T20:48:39.738Z,101410.75
2022-12-19T20:51:08.549Z,101406.34
2022-12-19T20:53:38.150Z,101409.00
2022-12-19T20:56:07.435Z,101393.88
2022-12-19T20:58:36.648Z,101408.16
2022-12-19T21:01:06.663Z,101397.47
2022-12-19T21:03:35.047Z,101401.94
2022-12-19T21:06:04.685Z,101400.16
2022-12-19T21:08:32.716Z,101402.84
2022-12-19T21:11:01.441Z,101402.84
2022-12-19T21:13:29.724Z,101407.28
2022-12-19T21:15:59.272Z,101395.69
2022-12-19T21:18:28.153Z,101397.50
2022-12-19T21:20:56.839Z,101400.16
2022-12-19T21:23:26.479Z,101397.50
2022-12-19T21:25:58.837Z,101397.50
2022-12-19T21:28:26.736Z,101393.06
2022-12-19T21:30:59.317Z,101386.81
2022-12-19T21:33:27.791Z,101397.50
2022-12-19T21:35:55.621Z,101391.25
2022-12-19T21:38:25.557Z,101391.25
2022-12-19T21:40:53.394Z,101385.94
2022-12-19T21:43:21.284Z,101391.25
2022-12-19T21:45:49.016Z,101393.06
2022-12-19T21:48:16.824Z,101393.06
2022-12-19T21:50:44.699Z,101389.47
2022-12-19T21:53:55.437Z,101388.59
2022-12-19T21:56:48.489Z,101388.59
2022-12-19T21:59:53.688Z,101394.81
2022-12-19T22:02:19.826Z,101396.59
2022-12-19T22:04:49.925Z,101402.81
2022-12-19T22:07:19.799Z,101398.38
2022-12-19T22:09:49.358Z,101391.22
2022-12-19T22:12:19.080Z,101389.47
2022-12-19T22:14:47.494Z,101380.59
2022-12-19T22:17:15.553Z,101380.59
2022-12-19T22:19:43.561Z,101388.59
2022-12-19T22:22:14.140Z,101395.72
2022-12-19T22:24:42.391Z,101387.72
2022-12-19T22:27:12.449Z,101398.41
2022-12-19T22:29:42.222Z,101393.06
2022-12-19T22:32:10.497Z,101393.97
2022-12-19T22:34:39.772Z,101379.69
2022-12-19T22:37:07.996Z,101379.69
2022-12-19T22:39:39.718Z,101388.63
2022-12-19T22:42:07.748Z,101380.59
2022-12-19T22:44:37.047Z,101377.91
2022-12-19T22:47:06.673Z,101374.38
2022-12-19T22:49:38.889Z,101379.72
2022-12-19T22:52:08.360Z,101380.63
2022-12-19T22:54:48.624Z,101384.19
2022-12-19T22:57:52.920Z,101369.00
2022-12-19T23:00:42.302Z,101361.03
2022-12-19T23:06:37.506Z,101349.41
2022-12-19T23:09:28.423Z,101345.84
2022-12-19T23:12:29.385Z,101344.97
2022-12-19T23:15:07.611Z,101344.97
2022-12-19T23:19:12.924Z,101333.38
2022-12-19T23:20:56.319Z,101334.28
2022-12-19T23:23:41.348Z,101331.59
2022-12-19T23:26:31.907Z,101338.72
2022-12-19T23:29:13.801Z,101329.81
2022-12-19T23:35:09.904Z,101321.78
2022-12-19T23:37:51.882Z,101320.91
2022-12-19T23:40:40.927Z,101324.47
2022-12-19T23:43:10.256Z,101328.91
2022-12-19T23:45:44.241Z,101328.03
2022-12-19T23:48:21.664Z,101323.56
2022-12-19T23:51:04.079Z,101326.22
2022-12-19T23:53:53.778Z,101339.63
2022-12-19T23:56:47.722Z,101317.28
2022-12-19T23:59:21.737Z,101330.69
